Time;durP1;ratioP1;P1;durP2;ratioP2;P2;SDS_P1;SDS_P2;PMS_P1;PMS_P2;Temp;Humidity;BMP_temperature;BMP_pressure;BME280_temperature;BME280_humidity;BME280_pressure;Samples;Min_cycle;Max_cycle;Signal;HPM_P1;HPM_P2
2023/12/05 00:01:41;;;;;;;0.00;0.00;;;;;;;;;;4995727;28;20113;-79
2023/12/05 00:04:06;;;;;;;0.00;0.00;;;;;;;;;;5016595;28;20033;-80
2023/12/05 00:06:32;;;;;;;0.00;0.00;;;;;;;;;;5016553;28;20030;-80
2023/12/05 00:08:57;;;;;;;0.00;0.00;;;;;;;;;;4999105;28;20033;-80
2023/12/05 00:11:23;;;;;;;0.00;0.00;;;;;;;;;;5016922;28;20125;-80
2023/12/05 00:13:49;;;;;;;0.00;0.00;;;;;;;;;;4983087;28;20154;-80
2023/12/05 00:16:14;;;;;;;0.00;0.00;;;;;;;;;;5016600;28;20034;-79
2023/12/05 00:18:43;;;;;;;0.00;0.00;;;;;;;;;;4982587;28;20476;-80
2023/12/05 00:21:08;;;;;;;0.00;0.00;;;;;;;;;;5016032;28;20037;-80
2023/12/05 00:23:34;;;;;;;0.00;0.00;;;;;;;;;;5016544;28;20045;-80
2023/12/05 00:25:59;;;;;;;0.00;0.00;;;;;;;;;;4998974;28;20033;-79
2023/12/05 00:28:25;;;;;;;0.00;0.00;;;;;;;;;;4998467;28;20030;-80
2023/12/05 00:30:50;;;;;;;0.00;0.00;;;;;;;;;;4982534;28;20026;-80
2023/12/05 00:33:16;;;;;;;0.00;0.00;;;;;;;;;;5016898;28;20026;-79
2023/12/05 00:35:41;;;;;;;0.00;0.00;;;;;;;;;;5016456;28;20113;-80
2023/12/05 00:38:07;;;;;;;0.00;0.00;;;;;;;;;;4999111;28;20192;-80
2023/12/05 00:40:32;;;;;;;0.00;0.00;;;;;;;;;;4999377;28;20030;-80
2023/12/05 00:42:58;;;;;;;0.00;0.00;;;;;;;;;;5016389;28;20407;-79
2023/12/05 00:45:23;;;;;;;0.00;0.00;;;;;;;;;;4999125;28;20124;-81
2023/12/05 00:47:50;;;;;;;0.00;0.00;;;;;;;;;;4982965;28;20045;-79
2023/12/05 00:50:16;;;;;;;0.00;0.00;;;;;;;;;;5016108;28;20085;-79
2023/12/05 00:52:42;;;;;;;0.00;0.00;;;;;;;;;;4982971;28;20410;-79
2023/12/05 00:55:08;;;;;;;0.00;0.00;;;;;;;;;;4999075;28;20143;-80
2023/12/05 00:57:34;;;;;;;0.00;0.00;;;;;;;;;;4983044;28;20167;-80
2023/12/05 00:59:59;;;;;;;0.00;0.00;;;;;;;;;;5016352;28;20029;-80
2023/12/05 01:02:25;;;;;;;0.00;0.00;;;;;;;;;;4987294;28;20117;-80
2023/12/05 01:04:50;;;;;;;0.00;0.00;;;;;;;;;;4998284;28;20033;-79
2023/12/05 01:07:18;;;;;;;0.00;0.00;;;;;;;;;;5016077;28;20030;-80
2023/12/05 01:09:44;;;;;;;0.00;0.00;;;;;;;;;;4998492;28;20434;-79
2023/12/05 01:12:10;;;;;;;0.00;0.00;;;;;;;;;;5016347;28;20120;-79
2023/12/05 01:14:36;;;;;;;0.00;0.00;;;;;;;;;;4998234;28;20061;-80
2023/12/05 01:17:01;;;;;;;0.00;0.00;;;;;;;;;;5015746;28;20077;-80
2023/12/05 01:19:27;;;;;;;0.00;0.00;;;;;;;;;;5015912;28;20030;-80
2023/12/05 01:21:52;;;;;;;0.00;0.00;;;;;;;;;;4998261;28;20034;-80
2023/12/05 01:24:18;;;;;;;0.00;0.00;;;;;;;;;;4997933;28;20058;-80
2023/12/05 01:26:43;;;;;;;0.00;0.00;;;;;;;;;;5015159;28;20478;-79
2023/12/05 01:29:09;;;;;;;0.00;0.00;;;;;;;;;;5014779;28;20132;-80
2023/12/05 01:31:35;;;;;;;0.00;0.00;;;;;;;;;;5015955;28;20443;-80
2023/12/05 01:34:00;;;;;;;0.00;0.00;;;;;;;;;;5015775;28;20117;-80
2023/12/05 01:36:30;;;;;;;0.00;0.00;;;;;;;;;;4998112;28;20034;-79
2023/12/05 01:38:56;;;;;;;0.00;0.00;;;;;;;;;;4998828;28;20197;-80
2023/12/05 01:41:22;;;;;;;0.00;0.00;;;;;;;;;;4982198;28;20029;-80
2023/12/05 01:43:49;;;;;;;0.00;0.00;;;;;;;;;;5015592;28;20038;-79
2023/12/05 01:46:15;;;;;;;0.00;0.00;;;;;;;;;;4998211;28;20045;-80
2023/12/05 01:48:40;;;;;;;0.00;0.00;;;;;;;;;;4997781;28;20340;-80
2023/12/05 01:51:06;;;;;;;0.00;0.00;;;;;;;;;;4981831;28;20511;-80
2023/12/05 01:53:31;;;;;;;0.00;0.00;;;;;;;;;;4965417;28;20385;-80
2023/12/05 01:55:57;;;;;;;0.00;0.00;;;;;;;;;;5015618;28;20049;-80
2023/12/05 01:58:22;;;;;;;0.00;0.00;;;;;;;;;;5015550;28;20045;-80
2023/12/05 02:00:48;;;;;;;0.00;0.00;;;;;;;;;;4997847;28;20037;-80
2023/12/05 02:03:13;;;;;;;0.00;0.00;;;;;;;;;;4999575;28;20031;-80
2023/12/05 02:05:39;;;;;;;0.00;0.00;;;;;;;;;;4978660;28;20030;-80
2023/12/05 02:08:06;;;;;;;0.00;0.00;;;;;;;;;;4961976;28;20474;-79
2023/12/05 02:10:31;;;;;;;0.00;0.00;;;;;;;;;;4977797;28;20076;-80
2023/12/05 02:12:57;;;;;;;0.00;0.00;;;;;;;;;;4994923;28;20057;-79
2023/12/05 02:15:22;;;;;;;0.00;0.00;;;;;;;;;;4978305;28;20040;-79
2023/12/05 02:18:13;;;;;;;0.00;0.00;;;;;;;;;;4950950;28;20034;-80
2023/12/05 02:20:51;;;;;;;0.00;0.00;;;;;;;;;;4984009;28;20396;-80
2023/12/05 02:23:32;;;;;;;0.00;0.00;;;;;;;;;;4988495;28;20387;-80
2023/12/05 02:25:57;;;;;;;0.00;0.00;;;;;;;;;;4999065;28;20044;-80
2023/12/05 02:28:24;;;;;;;0.00;0.00;;;;;;;;;;5014130;28;20041;-80
2023/12/05 02:30:50;;;;;;;0.00;0.00;;;;;;;;;;4996949;28;20036;-79
2023/12/05 02:33:15;;;;;;;0.00;0.00;;;;;;;;;;4996941;28;20371;-80
2023/12/05 02:35:41;;;;;;;0.00;0.00;;;;;;;;;;5014748;28;20128;-80
2023/12/05 02:38:11;;;;;;;0.00;0.00;;;;;;;;;;4997016;28;20115;-80
2023/12/05 02:40:40;;;;;;;0.00;0.00;;;;;;;;;;4981275;28;20041;-80
2023/12/05 02:43:10;;;;;;;0.00;0.00;;;;;;;;;;4997790;28;20118;-80
2023/12/05 02:45:36;;;;;;;0.00;0.00;;;;;;;;;;4980797;28;20029;-80
2023/12/05 02:48:01;;;;;;;0.00;0.00;;;;;;;;;;4964933;28;20095;-80
2023/12/05 02:50:27;;;;;;;0.00;0.00;;;;;;;;;;4997034;28;20467;-79
2023/12/05 02:52:52;;;;;;;0.00;0.00;;;;;;;;;;4980325;28;20069;-79
2023/12/05 02:55:18;;;;;;;0.00;0.00;;;;;;;;;;5014940;28;20029;-81
2023/12/05 02:57:44;;;;;;;0.00;0.00;;;;;;;;;;5018116;28;20030;-80
2023/12/05 03:00:12;;;;;;;0.00;0.00;;;;;;;;;;5020083;28;20057;-81
2023/12/05 03:02:38;;;;;;;0.00;0.00;;;;;;;;;;5001400;28;20092;-80
2023/12/05 03:05:04;;;;;;;0.00;0.00;;;;;;;;;;5013391;28;20448;-80
2023/12/05 03:07:29;;;;;;;0.00;0.00;;;;;;;;;;4997944;28;20481;-79
2023/12/05 03:09:55;;;;;;;0.00;0.00;;;;;;;;;;5014360;28;20502;-79
2023/12/05 03:12:20;;;;;;;0.00;0.00;;;;;;;;;;4981220;28;20033;-81
2023/12/05 03:14:46;;;;;;;0.00;0.00;;;;;;;;;;4996762;28;20096;-80
2023/12/05 03:17:11;;;;;;;0.00;0.00;;;;;;;;;;5014475;28;20033;-80
2023/12/05 03:19:38;;;;;;;0.00;0.00;;;;;;;;;;5014204;28;20042;-80
2023/12/05 03:22:03;;;;;;;0.00;0.00;;;;;;;;;;4996751;28;20033;-80
2023/12/05 03:24:29;;;;;;;0.00;0.00;;;;;;;;;;4996380;28;20048;-80
2023/12/05 03:26:54;;;;;;;0.00;0.00;;;;;;;;;;5013834;28;20057;-80
2023/12/05 03:29:20;;;;;;;0.00;0.00;;;;;;;;;;5013889;28;20038;-80
2023/12/05 03:31:45;;;;;;;0.00;0.00;;;;;;;;;;5014498;28;20026;-80
2023/12/05 03:34:11;;;;;;;0.00;0.00;;;;;;;;;;5013638;28;20535;-80
2023/12/05 03:36:36;;;;;;;0.00;0.00;;;;;;;;;;4996432;28;20033;-80
2023/12/05 03:39:02;;;;;;;0.00;0.00;;;;;;;;;;4980494;28;20120;-80
2023/12/05 03:41:27;;;;;;;0.00;0.00;;;;;;;;;;5013994;28;20034;-80
2023/12/05 03:43:53;;;;;;;0.00;0.00;;;;;;;;;;5013963;28;20034;-81
2023/12/05 03:46:18;;;;;;;0.00;0.00;;;;;;;;;;4996712;28;20026;-80
2023/12/05 03:48:44;;;;;;;0.00;0.00;;;;;;;;;;5016767;28;20038;-79
2023/12/05 03:51:10;;;;;;;0.00;0.00;;;;;;;;;;4998780;28;20116;-80
2023/12/05 03:53:35;;;;;;;0.00;0.00;;;;;;;;;;5010610;28;20041;-79
2023/12/05 03:56:01;;;;;;;0.00;0.00;;;;;;;;;;4989635;28;20131;-79
2023/12/05 03:58:26;;;;;;;0.00;0.00;;;;;;;;;;5014215;28;20054;-80
2023/12/05 04:00:52;;;;;;;0.00;0.00;;;;;;;;;;4996606;28;20489;-80
2023/12/05 04:03:19;;;;;;;0.00;0.00;;;;;;;;;;4998195;28;20447;-79
2023/12/05 04:05:44;;;;;;;0.00;0.00;;;;;;;;;;4983116;28;20030;-80
2023/12/05 04:08:10;;;;;;;0.00;0.00;;;;;;;;;;4997079;28;20404;-79
2023/12/05 04:10:35;;;;;;;0.00;0.00;;;;;;;;;;4982986;28;20033;-80
2023/12/05 04:13:01;;;;;;;0.00;0.00;;;;;;;;;;4967114;28;20117;-79
2023/12/05 04:15:26;;;;;;;0.00;0.00;;;;;;;;;;5016746;28;20030;-80
2023/12/05 04:17:52;;;;;;;0.00;0.00;;;;;;;;;;5017318;28;20034;-80
2023/12/05 04:20:17;;;;;;;0.00;0.00;;;;;;;;;;4999424;28;20446;-80
2023/12/05 04:22:43;;;;;;;0.00;0.00;;;;;;;;;;4999170;28;20041;-80
2023/12/05 04:25:10;;;;;;;0.00;0.00;;;;;;;;;;5016928;28;20083;-80
2023/12/05 04:27:36;;;;;;;0.00;0.00;;;;;;;;;;4998973;28;20057;-80
2023/12/05 04:30:03;;;;;;;0.00;0.00;;;;;;;;;;4999312;28;20045;-80
2023/12/05 04:32:29;;;;;;;0.00;0.00;;;;;;;;;;5018807;28;20072;-80
2023/12/05 04:34:54;;;;;;;0.00;0.00;;;;;;;;;;4982810;28;20061;-79
2023/12/05 04:37:20;;;;;;;0.00;0.00;;;;;;;;;;5016733;28;20065;-80
2023/12/05 04:39:45;;;;;;;0.00;0.00;;;;;;;;;;5021417;28;20085;-79
2023/12/05 04:42:11;;;;;;;0.00;0.00;;;;;;;;;;5001479;28;20038;-80
2023/12/05 04:44:36;;;;;;;0.00;0.00;;;;;;;;;;5016563;28;20367;-80
2023/12/05 04:47:03;;;;;;;0.00;0.00;;;;;;;;;;4999573;28;20044;-80
2023/12/05 04:49:29;;;;;;;0.00;0.00;;;;;;;;;;5004290;28;20105;-80
2023/12/05 04:51:55;;;;;;;0.00;0.00;;;;;;;;;;5002505;28;20022;-80
2023/12/05 04:54:20;;;;;;;0.00;0.00;;;;;;;;;;4999930;28;20076;-79
2023/12/05 04:56:46;;;;;;;0.00;0.00;;;;;;;;;;5016214;28;20038;-79
2023/12/05 04:59:11;;;;;;;0.00;0.00;;;;;;;;;;5016053;28;20030;-79
2023/12/05 05:01:37;;;;;;;0.35;0.00;;;;;;;;;;5015937;28;20049;-80
2023/12/05 05:04:03;;;;;;;0.00;0.00;;;;;;;;;;4998249;28;20029;-79
2023/12/05 05:06:28;;;;;;;0.00;0.00;;;;;;;;;;5016322;28;20061;-79
2023/12/05 05:08:53;;;;;;;0.00;0.00;;;;;;;;;;5016082;28;20064;-79
2023/12/05 05:11:19;;;;;;;0.00;0.00;;;;;;;;;;5016057;28;20423;-79
2023/12/05 05:13:45;;;;;;;0.00;0.00;;;;;;;;;;4981124;28;20096;-78
2023/12/05 05:16:10;;;;;;;0.00;0.00;;;;;;;;;;4997680;28;20426;-78
2023/12/05 05:18:37;;;;;;;0.00;0.00;;;;;;;;;;5014899;28;20154;-79
2023/12/05 05:21:06;;;;;;;0.00;0.00;;;;;;;;;;4997979;28;20517;-80
2023/12/05 05:23:33;;;;;;;0.00;0.00;;;;;;;;;;5026145;28;20052;-77
2023/12/05 05:25:58;;;;;;;0.00;0.00;;;;;;;;;;5034664;28;20061;-79
2023/12/05 05:28:27;;;;;;;0.00;0.00;;;;;;;;;;5034511;28;20107;-81
2023/12/05 05:30:56;;;;;;;0.00;0.00;;;;;;;;;;5005991;28;20041;-77
2023/12/05 05:33:25;;;;;;;0.00;0.00;;;;;;;;;;4987662;28;20030;-77
2023/12/05 05:35:50;;;;;;;0.00;0.00;;;;;;;;;;4978483;28;20032;-77
2023/12/05 05:38:16;;;;;;;0.00;0.00;;;;;;;;;;4961808;28;20026;-77
2023/12/05 05:40:42;;;;;;;0.00;0.00;;;;;;;;;;4994540;28;20034;-78
2023/12/05 05:43:11;;;;;;;0.00;0.00;;;;;;;;;;4977145;28;20033;-78
2023/12/05 05:45:37;;;;;;;0.00;0.00;;;;;;;;;;4981587;28;20030;-80
2023/12/05 05:48:03;;;;;;;0.00;0.00;;;;;;;;;;5015796;28;20076;-80
2023/12/05 05:50:28;;;;;;;0.00;0.00;;;;;;;;;;5014868;28;20042;-79
2023/12/05 05:52:54;;;;;;;0.00;0.00;;;;;;;;;;5016901;28;20024;-81
2023/12/05 05:55:19;;;;;;;0.00;0.00;;;;;;;;;;5014359;28;20119;-83
2023/12/05 05:57:45;;;;;;;0.00;0.00;;;;;;;;;;5013411;28;20033;-80
2023/12/05 06:00:12;;;;;;;0.00;0.00;;;;;;;;;;5003995;28;20026;-81
2023/12/05 06:02:45;;;;;;;0.00;0.00;;;;;;;;;;4996136;28;20049;-82
2023/12/05 06:05:11;;;;;;;0.00;0.00;;;;;;;;;;4983256;28;20220;-79
2023/12/05 06:07:37;;;;;;;0.00;0.00;;;;;;;;;;5002622;28;20128;-77
2023/12/05 06:10:03;;;;;;;0.00;0.00;;;;;;;;;;5011602;28;20038;-80
2023/12/05 06:12:32;;;;;;;0.00;0.00;;;;;;;;;;5011306;28;20032;-80
2023/12/05 06:14:58;;;;;;;0.00;0.00;;;;;;;;;;5005075;28;20033;-79
2023/12/05 06:17:26;;;;;;;0.00;0.00;;;;;;;;;;5012492;28;20470;-81
2023/12/05 06:19:55;;;;;;;0.00;0.00;;;;;;;;;;5009263;28;20116;-81
2023/12/05 06:22:25;;;;;;;0.00;0.00;;;;;;;;;;4997543;28;20372;-79
2023/12/05 06:27:46;;;;;;;0.00;0.00;;;;;;;;;;4984028;28;20022;-81
2023/12/05 06:30:12;;;;;;;0.00;0.00;;;;;;;;;;4994634;28;20471;-81
2023/12/05 06:32:38;;;;;;;0.00;0.00;;;;;;;;;;4991380;28;20399;-82
2023/12/05 06:35:04;;;;;;;0.00;0.00;;;;;;;;;;4989492;28;20047;-81
2023/12/05 06:37:29;;;;;;;0.00;0.00;;;;;;;;;;4990856;28;20045;-80
2023/12/05 06:39:56;;;;;;;0.00;0.00;;;;;;;;;;4992068;28;20038;-81
2023/12/05 06:42:22;;;;;;;0.00;0.00;;;;;;;;;;4986776;28;20053;-80
2023/12/05 06:44:47;;;;;;;0.00;0.00;;;;;;;;;;4986049;28;20034;-80
2023/12/05 06:47:13;;;;;;;0.00;0.00;;;;;;;;;;4987621;28;20092;-81
2023/12/05 06:49:47;;;;;;;0.00;0.00;;;;;;;;;;4965971;28;20555;-79
2023/12/05 06:52:13;;;;;;;0.00;0.00;;;;;;;;;;4987822;28;20038;-80
2023/12/05 06:54:41;;;;;;;0.00;0.00;;;;;;;;;;4989198;28;20046;-82
2023/12/05 07:01:15;;;;;;;0.00;0.00;;;;;;;;;;4999714;28;20132;-81
2023/12/05 07:03:49;;;;;;;0.00;0.00;;;;;;;;;;4953526;28;20040;-81
2023/12/05 07:06:20;;;;;;;0.00;0.00;;;;;;;;;;5004088;28;20030;-80
2023/12/05 07:09:04;;;;;;;0.00;0.00;;;;;;;;;;5008492;28;20046;-84
2023/12/05 07:11:31;;;;;;;0.00;0.00;;;;;;;;;;5002766;28;20081;-79
2023/12/05 07:17:44;;;;;;;0.00;0.00;;;;;;;;;;5009941;28;20041;-80
2023/12/05 07:20:36;;;;;;;0.00;0.00;;;;;;;;;;4978015;28;20018;-79
2023/12/05 07:26:48;;;;;;;0.00;0.00;;;;;;;;;;5017554;23;20192;-79
2023/12/05 07:44:39;;;;;;;0.00;0.00;;;;;;;;;;5190732;23;20053;-81
2023/12/05 07:47:07;;;;;;;0.00;0.00;;;;;;;;;;5020019;28;20033;-81
2023/12/05 07:49:36;;;;;;;0.00;0.00;;;;;;;;;;5037794;28;20351;-81
2023/12/05 07:52:04;;;;;;;0.00;0.00;;;;;;;;;;5018081;28;20394;-77
2023/12/05 07:58:07;;;;;;;;;;;;;;;;;;;;;
2023/12/05 08:00:38;;;;;;;0.00;0.00;;;;;;;;;;5016518;28;20055;-81
2023/12/05 08:03:04;;;;;;;0.00;0.00;;;;;;;;;;4997553;28;20141;-80
2023/12/05 08:05:33;;;;;;;0.00;0.00;;;;;;;;;;5013094;28;20132;-83
2023/12/05 08:07:59;;;;;;;0.00;0.00;;;;;;;;;;5034457;28;20024;-84
2023/12/05 08:10:24;;;;;;;0.00;0.00;;;;;;;;;;5032191;28;20025;-84
2023/12/05 08:12:51;;;;;;;0.00;0.00;;;;;;;;;;5034071;23;20062;-83
2023/12/05 08:15:16;;;;;;;0.08;0.00;;;;;;;;;;4966309;28;20426;-81
2023/12/05 08:20:31;;;;;;;0.00;0.00;;;;;;;;;;4982410;23;20061;-79
2023/12/05 08:23:06;;;;;;;0.00;0.00;;;;;;;;;;4992633;28;20029;-78
2023/12/05 08:36:42;;;;;;;0.00;0.00;;;;;;;;;;5034734;28;20110;-79
2023/12/05 08:39:34;;;;;;;0.00;0.00;;;;;;;;;;5015018;28;20112;-80
2023/12/05 08:41:59;;;;;;;0.00;0.00;;;;;;;;;;5025229;28;20118;-81
2023/12/05 08:44:33;;;;;;;0.00;0.00;;;;;;;;;;5017419;28;20061;-80
2023/12/05 08:46:58;;;;;;;0.00;0.00;;;;;;;;;;5000794;28;20087;-81
2023/12/05 08:49:24;;;;;;;0.00;0.00;;;;;;;;;;5027190;28;20459;-80
2023/12/05 08:54:48;;;;;;;0.00;0.00;;;;;;;;;;5018281;28;20084;-82
2023/12/05 08:57:14;;;;;;;0.00;0.00;;;;;;;;;;5015088;28;20108;-81
2023/12/05 08:59:51;;;;;;;0.00;0.00;;;;;;;;;;5031338;28;20059;-83
2023/12/05 09:05:38;;;;;;;0.00;0.00;;;;;;;;;;5059671;22;20072;-78
2023/12/05 09:08:05;;;;;;;0.00;0.00;;;;;;;;;;4995878;28;20037;-78
2023/12/05 09:10:31;;;;;;;0.00;0.00;;;;;;;;;;4994888;28;20502;-80
2023/12/05 09:12:56;;;;;;;0.00;0.00;;;;;;;;;;5029759;28;20079;-79
2023/12/05 09:15:22;;;;;;;0.00;0.00;;;;;;;;;;5023652;28;20030;-77
2023/12/05 09:17:47;;;;;;;0.00;0.00;;;;;;;;;;5027315;28;20121;-78
2023/12/05 09:20:13;;;;;;;0.00;0.00;;;;;;;;;;5043195;28;20041;-78
2023/12/05 09:22:41;;;;;;;0.00;0.00;;;;;;;;;;5032470;28;20107;-79
2023/12/05 09:25:07;;;;;;;0.00;0.00;;;;;;;;;;4996543;28;20521;-82
2023/12/05 09:27:33;;;;;;;0.00;0.00;;;;;;;;;;5034262;28;20069;-80
2023/12/05 09:29:59;;;;;;;0.00;0.00;;;;;;;;;;5037140;28;20065;-79
2023/12/05 09:32:24;;;;;;;0.10;0.00;;;;;;;;;;5008336;28;20435;-80
2023/12/05 09:34:52;;;;;;;0.00;0.00;;;;;;;;;;5000865;28;20211;-82
2023/12/05 09:37:18;;;;;;;0.00;0.00;;;;;;;;;;5004224;28;20096;-80
2023/12/05 09:39:43;;;;;;;0.00;0.00;;;;;;;;;;5033586;28;20045;-80
2023/12/05 09:42:12;;;;;;;0.00;0.00;;;;;;;;;;5004727;28;20048;-82
2023/12/05 09:44:49;;;;;;;0.00;0.00;;;;;;;;;;5021976;28;20178;-79
2023/12/05 09:47:20;;;;;;;0.00;0.00;;;;;;;;;;5034458;28;20076;-79
2023/12/05 09:49:46;;;;;;;;;;;;;;;;;;5015590;28;20099;-78
2023/12/05 09:52:52;;;;;;;0.00;0.00;;;;;;;;;;5035839;28;20319;-77
2023/12/05 09:55:18;;;;;;;0.00;0.00;;;;;;;;;;5000061;28;20045;-76
2023/12/05 09:58:13;;;;;;;0.00;0.00;;;;;;;;;;5010224;28;20081;-81
2023/12/05 10:00:45;;;;;;;0.00;0.00;;;;;;;;;;4932287;28;20048;-80
2023/12/05 10:03:15;;;;;;;0.00;0.00;;;;;;;;;;5003856;28;20105;-80
2023/12/05 11:29:21;;;;;;;0.00;0.00;;;;;;;;;;6177600;22;1951036;-89
2023/12/05 11:32:03;;;;;;;0.00;0.00;;;;;;;;;;6209638;23;20032;-91
2023/12/05 11:34:51;;;;;;;0.00;0.00;;;;;;;;;;6233926;23;20390;-90
2023/12/05 11:37:43;;;;;;;0.00;0.00;;;;;;;;;;6231152;23;20000;-90
2023/12/05 11:40:10;;;;;;;0.00;0.00;;;;;;;;;;6221093;23;20039;-90
2023/12/05 11:42:58;;;;;;;0.00;0.00;;;;;;;;;;6230294;23;20504;-90
2023/12/05 11:45:24;;;;;;;0.00;0.00;;;;;;;;;;6229894;23;20034;-83
2023/12/05 11:48:10;;;;;;;0.00;0.00;;;;;;;;;;6247447;23;20077;-84
2023/12/05 11:50:46;;;;;;;0.00;0.00;;;;;;;;;;6217942;23;20161;-83
2023/12/05 11:53:15;;;;;;;0.00;0.00;;;;;;;;;;6218723;23;20449;-84
2023/12/05 11:55:47;;;;;;;0.00;0.00;;;;;;;;;;6220245;23;20004;-83
2023/12/05 11:58:29;;;;;;;0.00;0.00;;;;;;;;;;6220336;23;20000;-81
2023/12/05 12:01:09;;;;;;;0.00;0.00;;;;;;;;;;6228635;23;20111;-87
2023/12/05 12:03:50;;;;;;;0.00;0.00;;;;;;;;;;6199699;23;20007;-84
2023/12/05 12:06:25;;;;;;;0.00;0.00;;;;;;;;;;6222931;23;20050;-82
2023/12/05 12:08:53;;;;;;;0.00;0.00;;;;;;;;;;6224021;23;20020;-84
2023/12/05 12:11:20;;;;;;;0.00;0.00;;;;;;;;;;6252637;23;20011;-84
2023/12/05 12:13:48;;;;;;;0.00;0.00;;;;;;;;;;6252779;23;20027;-86
2023/12/05 12:16:15;;;;;;;0.00;0.00;;;;;;;;;;6251341;23;20037;-90
2023/12/05 12:18:40;;;;;;;0.00;0.00;;;;;;;;;;6174189;23;20330;-90
2023/12/05 12:21:06;;;;;;;0.00;0.00;;;;;;;;;;6198637;23;20008;-87
2023/12/05 12:23:32;;;;;;;0.00;0.00;;;;;;;;;;6252036;23;20000;-91
2023/12/05 12:26:00;;;;;;;0.00;0.00;;;;;;;;;;6225848;23;20312;-93
2023/12/05 12:28:29;;;;;;;0.00;0.00;;;;;;;;;;6249571;23;20066;-91
2023/12/05 12:30:56;;;;;;;0.00;0.00;;;;;;;;;;6169174;23;20004;-84
2023/12/05 12:33:22;;;;;;;0.00;0.00;;;;;;;;;;6193885;23;20077;-84
2023/12/05 12:35:48;;;;;;;0.00;0.00;;;;;;;;;;6218916;23;20004;-84
2023/12/05 12:38:17;;;;;;;0.00;0.00;;;;;;;;;;6218710;23;20005;-85
2023/12/05 12:40:42;;;;;;;0.00;0.00;;;;;;;;;;6193559;23;20024;-84
2023/12/05 12:43:08;;;;;;;0.00;0.00;;;;;;;;;;6218581;23;20435;-85
2023/12/05 12:45:34;;;;;;;0.00;0.00;;;;;;;;;;6218157;23;20036;-84
2023/12/05 12:48:03;;;;;;;0.00;0.00;;;;;;;;;;6245282;23;20015;-84
2023/12/05 12:50:30;;;;;;;0.00;0.00;;;;;;;;;;6245265;23;20010;-85
2023/12/05 12:52:56;;;;;;;0.00;0.00;;;;;;;;;;6218573;23;20000;-84
2023/12/05 12:55:23;;;;;;;0.00;0.00;;;;;;;;;;6218687;23;20008;-84
2023/12/05 12:57:55;;;;;;;0.00;0.00;;;;;;;;;;6218694;23;20000;-84
2023/12/05 13:00:21;;;;;;;0.00;0.00;;;;;;;;;;6193302;23;20004;-83
2023/12/05 13:02:52;;;;;;;0.00;0.00;;;;;;;;;;6215858;23;20000;-83
2023/12/05 13:05:18;;;;;;;0.00;0.00;;;;;;;;;;6192395;23;20011;-84
2023/12/05 13:07:44;;;;;;;0.00;0.00;;;;;;;;;;6215754;23;20059;-84
2023/12/05 13:10:09;;;;;;;0.00;0.00;;;;;;;;;;6243336;23;20087;-84
2023/12/05 13:12:35;;;;;;;0.00;0.00;;;;;;;;;;6216925;23;20279;-85
2023/12/05 13:15:00;;;;;;;0.00;0.00;;;;;;;;;;6216856;23;20500;-84
2023/12/05 13:17:26;;;;;;;0.00;0.00;;;;;;;;;;6244098;23;20070;-84
2023/12/05 13:20:03;;;;;;;0.00;0.00;;;;;;;;;;6218762;23;20087;-84
2023/12/05 13:22:29;;;;;;;0.00;0.00;;;;;;;;;;6218199;23;20004;-84
2023/12/05 13:24:57;;;;;;;0.00;0.00;;;;;;;;;;6217234;23;20015;-84
2023/12/05 13:27:23;;;;;;;0.00;0.00;;;;;;;;;;6216289;23;20016;-84
2023/12/05 13:29:52;;;;;;;0.00;0.00;;;;;;;;;;6215856;23;20354;-84
2023/12/05 13:32:17;;;;;;;0.00;0.00;;;;;;;;;;6191929;23;20004;-85
2023/12/05 13:34:43;;;;;;;0.00;0.00;;;;;;;;;;6216612;23;20380;-84
2023/12/05 13:37:08;;;;;;;0.00;0.00;;;;;;;;;;6216105;23;20482;-84
2023/12/05 13:39:34;;;;;;;0.00;0.00;;;;;;;;;;6243370;23;20023;-86
2023/12/05 13:41:59;;;;;;;0.00;0.00;;;;;;;;;;6217550;23;20057;-83
2023/12/05 13:44:25;;;;;;;0.00;0.00;;;;;;;;;;6243295;23;20004;-83
2023/12/05 13:46:51;;;;;;;0.00;0.00;;;;;;;;;;6218239;23;20004;-83
2023/12/05 13:49:17;;;;;;;0.00;0.00;;;;;;;;;;6243298;23;20489;-84
2023/12/05 13:51:43;;;;;;;0.00;0.00;;;;;;;;;;6245247;23;20406;-84
2023/12/05 13:54:09;;;;;;;0.00;0.00;;;;;;;;;;6218093;23;20046;-84
2023/12/05 13:56:34;;;;;;;0.00;0.00;;;;;;;;;;6217670;23;20007;-84
2023/12/05 13:59:00;;;;;;;0.00;0.00;;;;;;;;;;6217810;23;20000;-84
2023/12/05 14:01:26;;;;;;;0.00;0.00;;;;;;;;;;6244058;23;20004;-84
2023/12/05 14:03:51;;;;;;;0.00;0.00;;;;;;;;;;6243173;23;20008;-84
2023/12/05 14:06:17;;;;;;;0.00;0.00;;;;;;;;;;6218281;23;20004;-84
2023/12/05 14:08:42;;;;;;;0.00;0.00;;;;;;;;;;6244072;23;20017;-84
2023/12/05 14:11:08;;;;;;;0.00;0.00;;;;;;;;;;6243002;23;20054;-83
2023/12/05 14:13:34;;;;;;;0.00;0.00;;;;;;;;;;6243839;23;20434;-83
2023/12/05 14:16:00;;;;;;;0.00;0.00;;;;;;;;;;6243090;23;20074;-85
2023/12/05 14:18:25;;;;;;;0.00;0.00;;;;;;;;;;6217587;23;20509;-81
2023/12/05 14:20:51;;;;;;;0.00;0.00;;;;;;;;;;6217693;23;20087;-84
2023/12/05 14:23:18;;;;;;;0.00;0.00;;;;;;;;;;6244406;23;20015;-85
2023/12/05 14:25:44;;;;;;;0.00;0.00;;;;;;;;;;6217888;23;20000;-84
2023/12/05 14:28:09;;;;;;;0.00;0.00;;;;;;;;;;6242509;23;20504;-84
2023/12/05 14:30:35;;;;;;;0.00;0.00;;;;;;;;;;6193227;23;20031;-83
2023/12/05 14:33:00;;;;;;;0.00;0.00;;;;;;;;;;6217569;23;20339;-83
2023/12/05 14:35:26;;;;;;;0.00;0.00;;;;;;;;;;6217398;23;20004;-84
2023/12/05 14:37:51;;;;;;;0.00;0.00;;;;;;;;;;6217605;23;20000;-85
2023/12/05 14:40:17;;;;;;;0.00;0.00;;;;;;;;;;6217944;23;20371;-83
2023/12/05 14:42:44;;;;;;;0.00;0.00;;;;;;;;;;6217569;23;20000;-85
2023/12/05 14:45:09;;;;;;;0.00;0.00;;;;;;;;;;6217398;23;20008;-85
2023/12/05 14:47:35;;;;;;;0.00;0.00;;;;;;;;;;6217254;23;20008;-84
2023/12/05 14:50:00;;;;;;;0.00;0.00;;;;;;;;;;6217516;23;19996;-81
2023/12/05 14:52:26;;;;;;;0.00;0.00;;;;;;;;;;6217314;23;20005;-84
2023/12/05 14:54:51;;;;;;;0.00;0.00;;;;;;;;;;6217447;23;20007;-83
2023/12/05 14:57:17;;;;;;;0.00;0.00;;;;;;;;;;6192551;23;20459;-82
2023/12/05 14:59:43;;;;;;;0.00;0.00;;;;;;;;;;6244295;23;20004;-85
2023/12/05 15:02:09;;;;;;;0.00;0.00;;;;;;;;;;6217150;23;20027;-84
2023/12/05 15:04:34;;;;;;;0.00;0.00;;;;;;;;;;6217541;23;20406;-80
2023/12/05 15:07:00;;;;;;;0.00;0.00;;;;;;;;;;6217144;23;20075;-82
2023/12/05 15:09:26;;;;;;;0.00;0.00;;;;;;;;;;6217247;23;20054;-83
2023/12/05 15:11:52;;;;;;;0.00;0.00;;;;;;;;;;6217070;23;20019;-86
2023/12/05 15:14:18;;;;;;;0.00;0.00;;;;;;;;;;6215991;23;20035;-81
2023/12/05 15:16:44;;;;;;;0.00;0.00;;;;;;;;;;6217161;23;20015;-81
2023/12/05 15:19:10;;;;;;;0.00;0.00;;;;;;;;;;6217151;23;20000;-81
2023/12/05 15:21:35;;;;;;;0.00;0.00;;;;;;;;;;6217271;23;20087;-81
2023/12/05 15:24:01;;;;;;;0.00;0.00;;;;;;;;;;6192347;23;20011;-83
2023/12/05 15:26:27;;;;;;;0.00;0.00;;;;;;;;;;6216834;23;20099;-82
2023/12/05 15:28:52;;;;;;;0.00;0.00;;;;;;;;;;6217045;23;20034;-82
2023/12/05 15:31:18;;;;;;;0.00;0.00;;;;;;;;;;6217227;23;20010;-83
2023/12/05 15:33:44;;;;;;;0.00;0.00;;;;;;;;;;6192379;23;20415;-80
2023/12/05 15:36:11;;;;;;;0.00;0.00;;;;;;;;;;6217670;23;20007;-82
2023/12/05 15:38:37;;;;;;;0.00;0.00;;;;;;;;;;6217075;23;20353;-82
2023/12/05 15:41:12;;;;;;;0.00;0.00;;;;;;;;;;6243747;23;20023;-81
2023/12/05 15:43:37;;;;;;;0.00;0.00;;;;;;;;;;6217001;23;20004;-80
2023/12/05 15:46:04;;;;;;;0.00;0.00;;;;;;;;;;6217094;23;20079;-80
2023/12/05 15:48:29;;;;;;;0.00;0.00;;;;;;;;;;6217107;23;20500;-80
2023/12/05 15:50:55;;;;;;;0.00;0.00;;;;;;;;;;6217094;23;20008;-81
2023/12/05 15:53:21;;;;;;;0.00;0.00;;;;;;;;;;6243818;23;20001;-81
2023/12/05 15:55:46;;;;;;;0.00;0.00;;;;;;;;;;6216662;23;20000;-80
2023/12/05 15:58:12;;;;;;;0.00;0.00;;;;;;;;;;6243693;23;20114;-80
2023/12/05 16:00:38;;;;;;;0.00;0.00;;;;;;;;;;6217153;23;20015;-80
2023/12/05 16:03:03;;;;;;;0.00;0.00;;;;;;;;;;6243647;23;20000;-80
2023/12/05 16:05:30;;;;;;;0.00;0.00;;;;;;;;;;6218755;23;20007;-80
2023/12/05 16:07:55;;;;;;;0.00;0.00;;;;;;;;;;6219192;23;20027;-80
2023/12/05 16:10:21;;;;;;;0.00;0.00;;;;;;;;;;6218507;23;20031;-80
2023/12/05 16:12:51;;;;;;;0.00;0.00;;;;;;;;;;6218699;23;20024;-79
2023/12/05 16:15:20;;;;;;;0.00;0.00;;;;;;;;;;6243784;23;20141;-82
2023/12/05 16:17:47;;;;;;;0.00;0.00;;;;;;;;;;6217882;23;19997;-80
2023/12/05 16:20:12;;;;;;;0.00;0.00;;;;;;;;;;6218879;23;20343;-81
2023/12/05 16:22:38;;;;;;;0.00;0.00;;;;;;;;;;6245232;23;19996;-81
2023/12/05 16:25:04;;;;;;;0.00;0.00;;;;;;;;;;6219088;23;20083;-80
2023/12/05 16:27:30;;;;;;;0.00;0.00;;;;;;;;;;6245196;23;20332;-80
2023/12/05 16:29:56;;;;;;;0.00;0.00;;;;;;;;;;6218664;23;20008;-79
2023/12/05 16:32:24;;;;;;;0.00;0.00;;;;;;;;;;6245492;23;20006;-79
2023/12/05 16:34:50;;;;;;;0.00;0.00;;;;;;;;;;6245500;23;20418;-79
2023/12/05 16:37:16;;;;;;;0.00;0.00;;;;;;;;;;6218127;23;20004;-79
2023/12/05 16:39:42;;;;;;;0.00;0.00;;;;;;;;;;6245371;23;20000;-80
2023/12/05 16:42:08;;;;;;;0.00;0.00;;;;;;;;;;6243620;23;20012;-79
2023/12/05 16:44:33;;;;;;;0.00;0.00;;;;;;;;;;6245325;23;20004;-79
2023/12/05 16:47:00;;;;;;;0.00;0.00;;;;;;;;;;6243961;23;20008;-79
2023/12/05 16:49:25;;;;;;;0.00;0.00;;;;;;;;;;6218560;23;20000;-79
2023/12/05 16:51:51;;;;;;;0.00;0.00;;;;;;;;;;6218126;23;20031;-79
2023/12/05 16:54:17;;;;;;;0.00;0.00;;;;;;;;;;6243856;23;20004;-79
2023/12/05 16:56:42;;;;;;;0.00;0.00;;;;;;;;;;6218331;23;20008;-79
2023/12/05 16:59:08;;;;;;;0.00;0.00;;;;;;;;;;6245046;23;20077;-79
2023/12/05 17:01:33;;;;;;;0.00;0.00;;;;;;;;;;6218330;23;20012;-79